Time;durP1;ratioP1;P1;durP2;ratioP2;P2;SDS_P1;SDS_P2;PMS_P1;PMS_P2;Temp;Humidity;BMP_temperature;BMP_pressure;BME280_temperature;BME280_humidity;BME280_pressure;Samples;Min_cycle;Max_cycle;Signal;HPM_P1;HPM_P2
2023/08/11 00:00:13;;;;;;;4.30;2.92;;;20.50;99.90;;;;;;5093544;28;20461;-75
2023/08/11 00:02:39;;;;;;;3.95;3.22;;;20.50;99.90;;;;;;5093392;28;20160;-74
2023/08/11 00:05:05;;;;;;;4.82;3.55;;;20.40;99.90;;;;;;5093438;28;20172;-74
2023/08/11 00:07:31;;;;;;;3.17;2.88;;;20.30;99.90;;;;;;5093432;28;20620;-74
2023/08/11 00:09:57;;;;;;;5.60;2.60;;;20.30;99.90;;;;;;5093265;28;20218;-74
2023/08/11 00:12:22;;;;;;;3.60;2.70;;;20.30;99.90;;;;;;5093042;28;20255;-74
2023/08/11 00:14:48;;;;;;;3.55;2.67;;;20.30;99.90;;;;;;5093387;28;20180;-74
2023/08/11 00:17:14;;;;;;;4.85;2.65;;;20.30;99.90;;;;;;5093455;28;20519;-74
2023/08/11 00:19:40;;;;;;;6.75;2.80;;;20.40;99.90;;;;;;5093197;28;20226;-74
2023/08/11 00:22:07;;;;;;;3.15;2.85;;;20.40;99.90;;;;;;5093584;28;20274;-74
2023/08/11 00:24:33;;;;;;;3.55;2.55;;;20.50;99.90;;;;;;5093087;28;20718;-75
2023/08/11 00:27:00;;;;;;;3.17;2.17;;;20.40;99.90;;;;;;5092865;28;20176;-74
2023/08/11 00:29:26;;;;;;;3.58;2.42;;;20.50;99.90;;;;;;5093284;28;20372;-74
2023/08/11 00:31:52;;;;;;;4.57;2.50;;;20.40;99.90;;;;;;5093356;28;20615;-74
2023/08/11 00:34:17;;;;;;;3.25;2.60;;;20.40;99.90;;;;;;5091884;28;20235;-74
2023/08/11 00:36:43;;;;;;;4.40;3.30;;;20.40;99.90;;;;;;5093240;28;20179;-74
2023/08/11 00:39:09;;;;;;;5.32;2.72;;;20.40;99.90;;;;;;5093109;28;20496;-74
2023/08/11 00:41:35;;;;;;;4.93;3.00;;;20.40;99.90;;;;;;5092517;28;20219;-74
2023/08/11 00:44:01;;;;;;;4.70;2.58;;;20.40;99.90;;;;;;5093236;28;20526;-73
2023/08/11 00:46:27;;;;;;;2.95;2.53;;;20.30;99.90;;;;;;5093072;28;20176;-75
2023/08/11 00:48:53;;;;;;;4.10;2.60;;;20.30;99.90;;;;;;5092971;28;20255;-74
2023/08/11 00:51:22;;;;;;;3.08;2.80;;;20.30;99.90;;;;;;5092884;28;20203;-74
2023/08/11 00:53:49;;;;;;;3.92;2.67;;;20.30;99.90;;;;;;5092974;28;20189;-74
2023/08/11 00:56:16;;;;;;;3.38;2.85;;;20.30;99.90;;;;;;5093937;28;20237;-74
2023/08/11 00:58:43;;;;;;;4.97;3.20;;;20.30;99.90;;;;;;5097080;28;20221;-75
2023/08/11 01:01:09;;;;;;;6.45;4.20;;;20.30;99.90;;;;;;5097073;28;20234;-74
2023/08/11 01:03:35;;;;;;;4.63;3.45;;;20.30;99.90;;;;;;5096894;28;20161;-74
2023/08/11 01:06:29;;;;;;;4.85;3.33;;;20.20;99.90;;;;;;5096857;28;20639;-75
2023/08/11 01:09:21;;;;;;;6.25;4.18;;;20.20;99.90;;;;;;5096945;28;20156;-74
2023/08/11 01:12:05;;;;;;;6.63;5.00;;;20.20;99.90;;;;;;5096734;28;20183;-74
2023/08/11 01:14:56;;;;;;;6.25;3.50;;;20.20;99.90;;;;;;5096593;28;20167;-74
2023/08/11 01:17:23;;;;;;;10.98;4.10;;;20.20;99.90;;;;;;5096753;28;20623;-73
2023/08/11 01:19:49;;;;;;;6.57;3.92;;;20.20;99.90;;;;;;5096560;28;20248;-73
2023/08/11 01:22:18;;;;;;;5.43;3.83;;;20.10;99.90;;;;;;5096782;28;20595;-74
2023/08/11 01:24:45;;;;;;;5.68;3.65;;;20.20;99.90;;;;;;5096121;28;20172;-73
2023/08/11 01:27:12;;;;;;;7.05;4.35;;;20.20;99.90;;;;;;5096429;28;20176;-75
2023/08/11 01:29:39;;;;;;;4.82;4.30;;;20.20;99.90;;;;;;5096565;28;20303;-74
2023/08/11 01:32:05;;;;;;;6.82;3.90;;;20.10;99.90;;;;;;5096625;28;20160;-74
2023/08/11 01:34:31;;;;;;;5.65;4.05;;;20.00;99.90;;;;;;5096486;28;20673;-75
2023/08/11 01:37:01;;;;;;;4.95;4.00;;;19.90;99.90;;;;;;5096393;28;20164;-74
2023/08/11 01:39:28;;;;;;;4.72;4.10;;;19.90;99.90;;;;;;5095827;28;20172;-74
2023/08/11 01:41:54;;;;;;;7.88;4.30;;;19.80;99.90;;;;;;5096109;28;20238;-74
2023/08/11 01:44:22;;;;;;;8.27;4.03;;;19.80;99.90;;;;;;5096265;28;20172;-74
2023/08/11 01:46:50;;;;;;;3.90;3.50;;;19.80;99.90;;;;;;5096181;28;20220;-73
2023/08/11 01:49:16;;;;;;;5.95;4.00;;;19.80;99.90;;;;;;5096122;28;20204;-73
2023/08/11 01:51:42;;;;;;;13.90;5.15;;;19.80;99.90;;;;;;5095985;28;20242;-73
2023/08/11 01:54:08;;;;;;;6.13;3.67;;;19.80;99.90;;;;;;5095644;28;20646;-73
2023/08/11 01:56:36;;;;;;;7.53;4.35;;;19.80;99.90;;;;;;5096030;28;20436;-73
2023/08/11 01:59:04;;;;;;;5.43;3.67;;;19.80;99.90;;;;;;5095963;28;20183;-74
2023/08/11 02:01:30;;;;;;;8.20;3.88;;;19.70;99.90;;;;;;5095962;28;20160;-74
2023/08/11 02:03:55;;;;;;;6.25;4.00;;;19.60;99.90;;;;;;5094636;28;20175;-73
2023/08/11 02:06:21;;;;;;;6.93;4.30;;;19.50;99.90;;;;;;5095939;28;20164;-74
2023/08/11 02:08:47;;;;;;;8.23;4.63;;;19.50;99.90;;;;;;5094057;28;20164;-73
2023/08/11 02:11:13;;;;;;;6.18;4.80;;;19.40;99.90;;;;;;5095791;28;20179;-74
2023/08/11 02:13:39;;;;;;;6.15;4.88;;;19.40;99.90;;;;;;5095622;28;20164;-73
2023/08/11 02:16:05;;;;;;;6.88;4.88;;;19.40;99.90;;;;;;5095775;28;20194;-73
2023/08/11 02:18:31;;;;;;;4.88;4.35;;;19.40;99.90;;;;;;5095504;28;20164;-73
2023/08/11 02:20:56;;;;;;;15.93;5.10;;;19.40;99.90;;;;;;5095563;28;20607;-74
2023/08/11 02:23:22;;;;;;;5.55;4.68;;;19.30;99.90;;;;;;5095144;28;20194;-74
2023/08/11 02:25:48;;;;;;;6.30;4.70;;;19.30;99.90;;;;;;5095272;28;20524;-73
2023/08/11 02:28:13;;;;;;;9.68;5.32;;;19.30;99.90;;;;;;5095404;28;20580;-73
2023/08/11 02:30:41;;;;;;;5.93;4.93;;;19.20;99.90;;;;;;5095239;28;20218;-74
2023/08/11 02:33:06;;;;;;;6.80;4.90;;;19.10;99.90;;;;;;5094060;28;20167;-74
2023/08/11 02:35:33;;;;;;;7.97;4.53;;;19.10;99.90;;;;;;5094843;28;20260;-73
2023/08/11 02:37:58;;;;;;;8.48;5.28;;;19.00;99.90;;;;;;5094686;28;20172;-73
2023/08/11 02:40:24;;;;;;;9.48;4.57;;;19.00;99.90;;;;;;5095075;28;20254;-73
2023/08/11 02:42:56;;;;;;;14.77;5.90;;;19.10;99.90;;;;;;5094684;28;20220;-73
2023/08/11 02:45:22;;;;;;;6.60;5.05;;;19.00;99.90;;;;;;5094961;28;20171;-73
2023/08/11 02:47:49;;;;;;;8.10;4.50;;;18.90;99.90;;;;;;5093682;28;20168;-73
2023/08/11 02:50:15;;;;;;;11.48;5.30;;;18.70;99.90;;;;;;5094547;28;20231;-73
2023/08/11 02:52:40;;;;;;;14.57;5.32;;;18.60;99.90;;;;;;5094540;28;20654;-73
2023/08/11 02:55:07;;;;;;;12.00;4.65;;;18.50;99.90;;;;;;5094710;28;20183;-73
2023/08/11 02:57:33;;;;;;;5.57;4.90;;;18.40;99.90;;;;;;5094768;28;20262;-73
2023/08/11 02:59:59;;;;;;;7.05;4.78;;;18.30;99.90;;;;;;5094806;28;20681;-73
2023/08/11 03:02:26;;;;;;;8.35;4.80;;;18.20;99.90;;;;;;5094755;28;20176;-73
2023/08/11 03:04:51;;;;;;;10.63;5.18;;;18.10;99.90;;;;;;5094590;28;20187;-73
2023/08/11 03:07:18;;;;;;;8.85;5.10;;;18.20;99.90;;;;;;5094346;28;20160;-73
2023/08/11 03:09:43;;;;;;;14.43;5.40;;;18.20;99.90;;;;;;5093160;28;20560;-73
2023/08/11 03:12:09;;;;;;;11.38;5.18;;;18.20;99.90;;;;;;5094474;28;20609;-73
2023/08/11 03:14:36;;;;;;;12.93;4.88;;;18.20;99.90;;;;;;5094030;28;20174;-73
2023/08/11 03:17:05;;;;;;;7.03;4.80;;;18.30;99.90;;;;;;5094634;28;20168;-73
2023/08/11 03:19:31;;;;;;;8.43;5.22;;;18.30;99.90;;;;;;5093841;28;20160;-73
2023/08/11 03:21:57;;;;;;;9.10;5.32;;;18.40;99.90;;;;;;5093722;28;20168;-72
2023/08/11 03:24:22;;;;;;;5.20;4.70;;;18.40;99.90;;;;;;5094260;28;20199;-73
2023/08/11 03:26:48;;;;;;;7.93;4.95;;;18.40;99.90;;;;;;5094024;28;20215;-74
2023/08/11 03:29:14;;;;;;;11.88;5.38;;;18.40;99.90;;;;;;5093818;28;20211;-74
2023/08/11 03:31:39;;;;;;;14.18;5.55;;;18.40;99.90;;;;;;5093853;28;20171;-73
2023/08/11 03:34:05;;;;;;;6.68;5.63;;;18.40;99.90;;;;;;5092304;28;20242;-73
2023/08/11 03:36:30;;;;;;;7.60;5.10;;;18.40;99.90;;;;;;5093730;28;20224;-73
2023/08/11 03:38:56;;;;;;;12.63;5.22;;;18.40;99.90;;;;;;5093864;28;20176;-74
2023/08/11 03:41:22;;;;;;;12.30;5.75;;;18.30;99.90;;;;;;5093525;28;20187;-74
2023/08/11 03:43:47;;;;;;;12.00;5.25;;;18.30;99.90;;;;;;5093811;28;20171;-73
2023/08/11 03:46:13;;;;;;;9.73;5.47;;;18.10;99.90;;;;;;5093711;28;20168;-73
2023/08/11 03:48:39;;;;;;;8.40;5.60;;;18.00;99.90;;;;;;5093486;28;20172;-73
2023/08/11 03:51:04;;;;;;;15.25;6.15;;;17.90;99.90;;;;;;5093092;28;20211;-72
2023/08/11 03:53:30;;;;;;;22.02;6.57;;;17.90;99.90;;;;;;5093074;28;20566;-72
2023/08/11 03:55:57;;;;;;;9.35;5.78;;;17.90;99.90;;;;;;5093538;28;20259;-72
2023/08/11 03:58:23;;;;;;;9.90;6.70;;;17.80;99.90;;;;;;5093187;28;20180;-73
2023/08/11 04:00:49;;;;;;;7.85;5.97;;;17.90;99.90;;;;;;5093400;28;20176;-72
2023/08/11 04:03:15;;;;;;;10.82;6.03;;;17.90;99.90;;;;;;5093309;28;20179;-73
2023/08/11 04:05:41;;;;;;;11.68;6.60;;;17.90;99.90;;;;;;5093044;28;20176;-73
2023/08/11 04:08:07;;;;;;;23.23;8.82;;;17.90;99.90;;;;;;5093323;28;20171;-72
2023/08/11 04:10:35;;;;;;;20.40;8.50;;;17.80;99.90;;;;;;5092708;28;20552;-73
2023/08/11 04:13:00;;;;;;;18.38;7.22;;;17.80;99.90;;;;;;5091576;28;20201;-72
2023/08/11 04:15:26;;;;;;;17.63;7.70;;;17.80;99.90;;;;;;5093120;28;20182;-72
2023/08/11 04:17:52;;;;;;;23.13;7.10;;;17.80;99.90;;;;;;5092713;28;20179;-72
2023/08/11 04:20:17;;;;;;;32.88;11.27;;;17.90;99.90;;;;;;5093102;28;20168;-73
2023/08/11 04:22:43;;;;;;;13.90;5.82;;;17.90;99.90;;;;;;5092894;28;20263;-74
2023/08/11 04:25:11;;;;;;;16.73;7.22;;;17.90;99.90;;;;;;5091656;28;20479;-74
2023/08/11 04:27:39;;;;;;;21.35;7.65;;;17.90;99.90;;;;;;5092951;28;20221;-73
2023/08/11 04:30:05;;;;;;;15.57;6.32;;;18.00;99.90;;;;;;5092990;28;20316;-74
2023/08/11 04:32:31;;;;;;;17.77;6.63;;;18.00;99.90;;;;;;5095335;28;20176;-72
2023/08/11 04:34:56;;;;;;;22.73;7.35;;;18.10;99.90;;;;;;5096074;28;20637;-72
2023/08/11 04:37:22;;;;;;;16.00;6.18;;;18.10;99.90;;;;;;5097112;28;20186;-73
2023/08/11 04:39:47;;;;;;;15.27;6.40;;;18.10;99.90;;;;;;5096996;28;20203;-73
2023/08/11 04:42:13;;;;;;;10.48;5.85;;;18.30;99.90;;;;;;5096834;28;20718;-73
2023/08/11 04:44:39;;;;;;;13.00;5.57;;;18.60;99.90;;;;;;5096789;28;20168;-73
2023/08/11 04:47:05;;;;;;;12.18;4.75;;;18.90;99.90;;;;;;5096308;28;20520;-74
2023/08/11 04:49:33;;;;;;;20.17;7.18;;;19.30;99.90;;;;;;5096901;28;20203;-73
2023/08/11 04:51:59;;;;;;;10.50;5.00;;;19.80;99.90;;;;;;5096638;28;20214;-73
2023/08/11 04:54:25;;;;;;;17.55;6.55;;;20.30;99.90;;;;;;5096744;28;20595;-73
2023/08/11 04:56:50;;;;;;;19.38;6.28;;;20.90;99.90;;;;;;5096664;28;20635;-73
2023/08/11 04:59:19;;;;;;;17.73;6.70;;;21.50;1.00;;;;;;5096343;28;20168;-74
2023/08/11 05:01:45;;;;;;;11.18;5.15;;;21.90;1.00;;;;;;5096452;28;20176;-73
2023/08/11 05:04:10;;;;;;;16.40;5.35;;;22.60;1.00;;;;;;5096243;28;20174;-73
2023/08/11 05:06:36;;;;;;;12.85;5.13;;;23.30;1.00;;;;;;5096507;28;20199;-74
2023/08/11 05:09:05;;;;;;;9.98;4.80;;;24.10;1.00;;;;;;5096497;28;20634;-75
2023/08/11 05:11:31;;;;;;;9.98;4.80;;;24.90;1.00;;;;;;5096441;28;20168;-74
2023/08/11 05:13:56;;;;;;;9.40;4.13;;;25.40;72.70;;;;;;5096317;28;20191;-75
2023/08/11 05:16:23;;;;;;;8.13;4.30;;;26.10;1.00;;;;;;5096090;28;20661;-75
2023/08/11 05:18:49;;;;;;;18.80;4.60;;;26.90;99.90;;;;;;5096131;28;20182;-75
2023/08/11 05:21:17;;;;;;;19.38;5.80;;;27.70;1.00;;;;;;5096445;28;20258;-75
2023/08/11 05:23:43;;;;;;;12.27;5.50;;;28.70;99.90;;;;;;5096240;28;20168;-76
2023/08/11 05:26:08;;;;;;;11.70;4.72;;;29.40;99.90;;;;;;5096186;28;20245;-76
2023/08/11 05:28:34;;;;;;;15.48;6.47;;;29.80;1.00;;;;;;5096188;28;20156;-76
2023/08/11 05:31:01;;;;;;;8.68;4.35;;;30.50;99.90;;;;;;5095408;28;20589;-76
2023/08/11 05:33:26;;;;;;;12.90;5.88;;;30.80;1.00;;;;;;5096103;28;20225;-75
2023/08/11 05:35:52;;;;;;;16.42;5.40;;;31.90;1.00;;;;;;5096034;28;20172;-76
2023/08/11 05:38:22;;;;;;;5.07;3.60;;;31.90;99.90;;;;;;5095872;28;20525;-75
2023/08/11 05:40:48;;;;;;;13.52;5.13;;;32.40;1.00;;;;;;5095583;28;20175;-75
2023/08/11 05:43:14;;;;;;;10.05;4.38;;;32.70;41.40;;;;;;5095273;28;20223;-74
2023/08/11 05:45:40;;;;;;;9.32;3.83;;;33.20;1.00;;;;;;5095558;28;20164;-74
2023/08/11 05:48:06;;;;;;;4.38;3.53;;;32.70;1.00;;;;;;5095215;28;20528;-74
2023/08/11 05:50:31;;;;;;;5.75;3.40;;;32.80;10.40;;;;;;5094002;28;20651;-74
2023/08/11 05:52:57;;;;;;;9.23;4.20;;;33.50;1.00;;;;;;5095271;28;20175;-75
2023/08/11 05:55:23;;;;;;;7.88;4.05;;;34.10;1.00;;;;;;5095563;28;20176;-75
2023/08/11 05:57:49;;;;;;;5.55;2.97;;;34.10;44.60;;;;;;5094835;28;20168;-75
2023/08/11 06:00:17;;;;;;;6.35;3.13;;;35.00;59.80;;;;;;5095538;28;20160;-75
2023/08/11 06:02:43;;;;;;;5.45;2.60;;;34.90;58.40;;;;;;5095003;28;20172;-75
2023/08/11 06:05:09;;;;;;;6.97;3.78;;;33.80;57.30;;;;;;5095316;28;20550;-75
2023/08/11 06:07:34;;;;;;;4.28;3.22;;;34.50;58.90;;;;;;5094986;28;20167;-76
2023/08/11 06:10:00;;;;;;;4.57;3.00;;;35.60;57.10;;;;;;5093701;28;20215;-75
2023/08/11 06:12:26;;;;;;;6.50;2.90;;;35.60;54.70;;;;;;5093997;28;20611;-75
2023/08/11 06:14:51;;;;;;;6.03;3.15;;;35.60;54.10;;;;;;5094882;28;20171;-75
2023/08/11 06:17:17;;;;;;;7.78;3.85;;;36.20;53.60;;;;;;5094762;28;20171;-75
2023/08/11 06:19:43;;;;;;;10.18;4.03;;;36.70;51.90;;;;;;5094814;28;20176;-75
2023/08/11 06:22:09;;;;;;;7.85;3.40;;;36.60;52.10;;;;;;5095215;28;20617;-76
2023/08/11 06:24:34;;;;;;;5.10;3.10;;;36.60;50.60;;;;;;5095286;28;20164;-75
2023/08/11 06:27:00;;;;;;;6.65;3.28;;;35.60;49.90;;;;;;5094564;28;20172;-75
2023/08/11 06:29:25;;;;;;;7.03;3.35;;;35.50;52.00;;;;;;5094292;28;20231;-77
2023/08/11 06:31:51;;;;;;;7.18;3.15;;;35.30;51.10;;;;;;5094665;28;20172;-75
2023/08/11 06:34:17;;;;;;;5.95;3.40;;;36.20;50.60;;;;;;5094636;28;20217;-75
2023/08/11 06:36:46;;;;;;;6.43;4.45;;;37.20;49.50;;;;;;5094964;28;20164;-75
2023/08/11 06:39:12;;;;;;;3.63;2.80;;;36.90;49.10;;;;;;5094554;28;20178;-75
2023/08/11 06:41:38;;;;;;;6.30;3.33;;;36.70;47.30;;;;;;5094546;28;20666;-78
2023/08/11 06:44:05;;;;;;;4.00;3.25;;;36.30;49.10;;;;;;5094303;28;20175;-77
2023/08/11 06:46:30;;;;;;;4.47;3.60;;;37.50;47.50;;;;;;5094330;28;20164;-78
2023/08/11 06:48:56;;;;;;;4.97;3.22;;;38.40;46.80;;;;;;5093080;28;20173;-78
2023/08/11 06:51:22;;;;;;;6.63;3.67;;;39.10;44.40;;;;;;5092826;28;20287;-77
2023/08/11 06:53:48;;;;;;;4.43;3.25;;;39.40;43.90;;;;;;5093590;28;20168;-78
2023/08/11 06:56:13;;;;;;;3.42;2.90;;;39.90;42.20;;;;;;5094393;28;20232;-78
2023/08/11 06:58:39;;;;;;;8.75;3.60;;;40.20;40.50;;;;;;5094087;28;20674;-76
2023/08/11 07:01:05;;;;;;;11.40;3.22;;;39.60;40.90;;;;;;5094344;28;20615;-76
2023/08/11 07:03:33;;;;;;;6.13;3.10;;;40.70;39.60;;;;;;5093764;28;20181;-76
2023/08/11 07:05:59;;;;;;;6.60;3.20;;;40.40;38.20;;;;;;5094271;28;20281;-77
2023/08/11 07:08:25;;;;;;;5.60;3.47;;;40.60;38.10;;;;;;5093849;28;20175;-77
2023/08/11 07:10:50;;;;;;;6.03;2.70;;;40.90;37.80;;;;;;5093423;28;20214;-77
2023/08/11 07:13:16;;;;;;;3.45;3.15;;;41.00;37.00;;;;;;5093499;28;20171;-77
2023/08/11 07:15:42;;;;;;;3.75;2.85;;;41.30;35.40;;;;;;5093477;28;20524;-77
2023/08/11 07:18:09;;;;;;;3.10;2.80;;;40.00;35.70;;;;;;5092160;28;20622;-77
2023/08/11 07:20:36;;;;;;;3.88;2.63;;;39.70;36.80;;;;;;5093579;28;20168;-78
2023/08/11 07:23:02;;;;;;;6.57;3.00;;;39.10;37.50;;;;;;5094075;28;20642;-78
2023/08/11 07:25:28;;;;;;;3.15;2.75;;;39.20;37.80;;;;;;5093562;28;20171;-77
2023/08/11 07:27:54;;;;;;;3.55;2.67;;;38.70;37.90;;;;;;5093528;28;20166;-78
2023/08/11 07:30:20;;;;;;;3.72;3.40;;;38.80;37.50;;;;;;5094090;28;20578;-78
2023/08/11 07:32:46;;;;;;;4.93;3.22;;;39.00;37.70;;;;;;5093237;28;20266;-78
2023/08/11 07:35:12;;;;;;;4.15;3.50;;;40.10;37.10;;;;;;5093535;28;20661;-78
2023/08/11 07:37:37;;;;;;;5.07;2.70;;;40.20;37.00;;;;;;5093541;28;20588;-78
2023/08/11 07:40:04;;;;;;;2.95;2.60;;;40.90;35.90;;;;;;5093490;28;20209;-79
2023/08/11 07:42:29;;;;;;;9.15;4.25;;;41.60;35.00;;;;;;5092746;28;20229;-79
2023/08/11 07:44:55;;;;;;;5.65;3.05;;;41.10;35.00;;;;;;5093441;28;20534;-79
2023/08/11 07:47:21;;;;;;;3.25;2.80;;;41.30;35.40;;;;;;5093144;28;20560;-78
2023/08/11 07:49:46;;;;;;;6.78;3.10;;;41.10;35.10;;;;;;5092987;28;20203;-78
2023/08/11 07:52:12;;;;;;;5.10;2.50;;;41.10;35.30;;;;;;5093086;28;20233;-78
2023/08/11 07:54:37;;;;;;;2.85;2.63;;;40.80;36.00;;;;;;5093149;28;20290;-78
2023/08/11 07:57:03;;;;;;;3.28;2.97;;;40.00;36.20;;;;;;5093018;28;20254;-79
2023/08/11 07:59:29;;;;;;;5.20;3.15;;;40.40;36.00;;;;;;5093133;28;20159;-78
2023/08/11 08:01:54;;;;;;;8.82;3.60;;;39.30;37.10;;;;;;5093218;28;20526;-79
2023/08/11 08:04:20;;;;;;;3.80;2.72;;;38.90;37.90;;;;;;5093420;28;20257;-78
2023/08/11 08:06:46;;;;;;;8.45;3.10;;;39.60;37.50;;;;;;5092879;28;20166;-78
2023/08/11 08:09:14;;;;;;;5.78;2.63;;;39.00;38.20;;;;;;5092848;28;20531;-79
2023/08/11 08:11:43;;;;;;;4.15;2.75;;;38.70;37.70;;;;;;5092495;28;20681;-79
2023/08/11 08:14:10;;;;;;;5.97;3.08;;;38.20;39.30;;;;;;5092871;28;20250;-78
2023/08/11 08:16:44;;;;;;;10.30;4.45;;;38.40;39.20;;;;;;5093286;28;20199;-78
2023/08/11 08:19:11;;;;;;;4.03;2.80;;;38.30;40.20;;;;;;5092960;28;20174;-79
2023/08/11 08:21:39;;;;;;;6.35;3.33;;;37.40;40.00;;;;;;5091652;28;20175;-78
2023/08/11 08:24:05;;;;;;;5.07;2.95;;;37.10;41.20;;;;;;5092941;28;20176;-77
2023/08/11 08:26:35;;;;;;;7.45;2.80;;;37.40;41.70;;;;;;5092643;28;20199;-78
2023/08/11 08:29:01;;;;;;;8.23;3.17;;;37.90;41.30;;;;;;5092626;28;20553;-79
2023/08/11 08:31:27;;;;;;;7.63;3.78;;;38.20;40.40;;;;;;5092739;28;20179;-78
2023/08/11 08:33:53;;;;;;;8.30;3.03;;;37.80;41.30;;;;;;5092547;28;20174;-79
2023/08/11 08:36:19;;;;;;;8.70;3.08;;;37.00;42.40;;;;;;5091890;28;20265;-78
2023/08/11 08:38:45;;;;;;;7.30;3.65;;;37.30;42.60;;;;;;5092915;28;20274;-80
2023/08/11 08:41:14;;;;;;;7.18;2.85;;;38.10;41.40;;;;;;5092200;28;20255;-79
2023/08/11 08:43:40;;;;;;;5.88;2.63;;;38.60;40.70;;;;;;5092179;28;20213;-77
2023/08/11 08:46:07;;;;;;;4.10;2.42;;;39.50;40.20;;;;;;5091710;28;20183;-80
2023/08/11 08:48:47;;;;;;;4.75;2.90;;;39.90;39.20;;;;;;5092164;28;20265;-79
2023/08/11 08:51:14;;;;;;;6.00;3.05;;;39.10;39.30;;;;;;5092625;28;20260;-79
2023/08/11 08:53:40;;;;;;;5.95;2.40;;;38.90;40.20;;;;;;5092469;28;20522;-79
2023/08/11 08:56:06;;;;;;;3.97;2.53;;;39.50;40.30;;;;;;5092650;28;20179;-78
2023/08/11 08:58:32;;;;;;;4.43;2.75;;;39.10;40.40;;;;;;5092745;28;20171;-78
2023/08/11 09:01:03;;;;;;;6.15;3.72;;;38.80;41.10;;;;;;5092692;28;20216;-77
2023/08/11 09:03:33;;;;;;;4.72;2.40;;;39.20;41.20;;;;;;5091029;28;20179;-78
2023/08/11 09:05:58;;;;;;;4.43;2.75;;;39.20;40.30;;;;;;5092650;28;20175;-79
2023/08/11 09:08:24;;;;;;;4.60;3.00;;;39.40;40.40;;;;;;5091893;28;20175;-79
2023/08/11 09:10:50;;;;;;;2.60;2.40;;;40.20;40.10;;;;;;5092235;28;20246;-79
2023/08/11 09:13:16;;;;;;;4.57;2.65;;;40.10;40.10;;;;;;5092561;28;20246;-79
2023/08/11 09:15:42;;;;;;;7.90;2.72;;;39.50;40.40;;;;;;5092316;28;20618;-79
2023/08/11 09:18:08;;;;;;;4.97;2.35;;;39.70;40.70;;;;;;5094714;28;20175;-79
2023/08/11 09:20:36;;;;;;;5.45;2.90;;;39.10;41.40;;;;;;5096499;28;20175;-77
2023/08/11 09:23:05;;;;;;;5.18;2.60;;;38.20;42.40;;;;;;5095849;28;20168;-79
2023/08/11 09:25:31;;;;;;;4.53;2.53;;;38.30;43.00;;;;;;5096583;28;20616;-79
2023/08/11 09:27:58;;;;;;;5.00;2.80;;;38.90;43.00;;;;;;5095867;28;20229;-78
2023/08/11 09:30:28;;;;;;;3.53;2.58;;;39.40;42.10;;;;;;5095911;28;20308;-79
2023/08/11 09:32:55;;;;;;;5.03;2.38;;;38.30;42.60;;;;;;5095848;28;20232;-79
2023/08/11 09:35:24;;;;;;;3.60;2.33;;;37.10;45.10;;;;;;5096304;28;20167;-78
2023/08/11 09:37:53;;;;;;;2.67;2.38;;;37.20;45.30;;;;;;5095853;28;20174;-77
2023/08/11 09:40:18;;;;;;;3.75;2.22;;;37.50;45.30;;;;;;5095979;28;20164;-78
2023/08/11 09:42:44;;;;;;;2.47;2.38;;;37.30;44.60;;;;;;5095256;28;20238;-78
2023/08/11 09:45:10;;;;;;;4.65;2.72;;;37.20;45.40;;;;;;5095815;28;20192;-77
2023/08/11 09:47:36;;;;;;;7.85;3.53;;;37.30;45.70;;;;;;5094737;28;20179;-76
2023/08/11 09:50:03;;;;;;;6.47;3.10;;;37.90;46.00;;;;;;5095398;28;20670;-77
2023/08/11 09:52:33;;;;;;;4.55;2.65;;;38.10;45.00;;;;;;5095311;28;20195;-77
2023/08/11 09:54:59;;;;;;;2.17;2.08;;;38.20;44.70;;;;;;5095528;28;20175;-77
2023/08/11 09:57:26;;;;;;;6.70;2.40;;;37.60;45.10;;;;;;5095247;28;20175;-79
2023/08/11 09:59:55;;;;;;;3.30;2.30;;;37.40;45.40;;;;;;5095549;28;20228;-78
2023/08/11 10:02:25;;;;;;;3.45;2.58;;;37.90;45.70;;;;;;5095353;28;20156;-78
2023/08/11 10:04:58;;;;;;;4.95;2.50;;;37.20;46.30;;;;;;5095126;28;20217;-77
2023/08/11 10:07:34;;;;;;;3.40;2.15;;;36.90;47.20;;;;;;5094947;28;20171;-76
2023/08/11 10:10:00;;;;;;;7.55;2.60;;;37.20;47.60;;;;;;5094932;28;20297;-77
2023/08/11 10:12:27;;;;;;;2.97;2.53;;;37.60;47.20;;;;;;5094965;28;20167;-77
2023/08/11 10:14:53;;;;;;;4.78;2.38;;;37.30;47.40;;;;;;5095178;28;20186;-77
2023/08/11 10:17:19;;;;;;;4.75;2.95;;;37.70;47.00;;;;;;5093891;28;20163;-78
2023/08/11 10:19:44;;;;;;;2.30;2.20;;;37.80;46.80;;;;;;5095075;28;20176;-77
2023/08/11 10:22:11;;;;;;;3.70;2.20;;;38.00;46.50;;;;;;5094934;28;20176;-78
2023/08/11 10:24:37;;;;;;;4.22;2.40;;;37.70;46.40;;;;;;5094861;28;20175;-77
2023/08/11 10:27:05;;;;;;;4.38;2.30;;;37.50;46.40;;;;;;5094884;28;20163;-76
2023/08/11 10:29:31;;;;;;;5.78;2.25;;;37.50;46.70;;;;;;5093972;28;20586;-77
2023/08/11 10:31:59;;;;;;;2.65;2.45;;;37.50;46.90;;;;;;5094865;28;20203;-78
2023/08/11 10:34:26;;;;;;;4.10;2.63;;;37.50;47.10;;;;;;5094465;28;20567;-78
2023/08/11 10:36:55;;;;;;;2.67;2.50;;;37.80;47.10;;;;;;5094353;28;20171;-76
2023/08/11 10:39:22;;;;;;;3.03;2.20;;;36.90;48.40;;;;;;5094618;28;20166;-76
2023/08/11 10:41:49;;;;;;;2.55;2.38;;;37.00;48.30;;;;;;5094515;28;20218;-75
2023/08/11 10:44:26;;;;;;;3.90;2.42;;;37.10;48.40;;;;;;5094527;28;20634;-77
2023/08/11 10:46:51;;;;;;;5.07;2.70;;;36.60;48.70;;;;;;5094237;28;20260;-76
2023/08/11 10:49:17;;;;;;;2.63;2.33;;;36.00;50.50;;;;;;5094427;28;20195;-76
2023/08/11 10:51:43;;;;;;;3.47;2.33;;;35.60;50.80;;;;;;5093958;28;20291;-76
2023/08/11 10:54:18;;;;;;;3.80;2.65;;;36.10;50.20;;;;;;5094441;28;20272;-76
2023/08/11 10:56:45;;;;;;;3.78;2.42;;;36.10;50.80;;;;;;5094103;28;20658;-75
2023/08/11 10:59:21;;;;;;;2.75;2.40;;;36.40;49.60;;;;;;5094419;28;20250;-76
2023/08/11 11:01:51;;;;;;;4.72;3.10;;;35.70;50.90;;;;;;5093931;28;20159;-76
2023/08/11 11:04:19;;;;;;;2.80;2.58;;;35.60;51.30;;;;;;5094033;28;20164;-75
2023/08/11 11:06:46;;;;;;;3.13;2.75;;;35.30;52.80;;;;;;5093825;28;20177;-76
2023/08/11 11:09:13;;;;;;;4.90;3.03;;;35.30;52.80;;;;;;5093374;28;20175;-77
2023/08/11 11:11:38;;;;;;;4.53;2.72;;;35.00;53.30;;;;;;5094352;28;20642;-76
2023/08/11 11:14:07;;;;;;;2.60;2.40;;;34.70;54.30;;;;;;5094036;28;20171;-77
2023/08/11 11:16:34;;;;;;;2.47;2.30;;;34.90;54.00;;;;;;5093670;28;20167;-76
2023/08/11 11:19:00;;;;;;;3.35;2.50;;;35.40;53.60;;;;;;5093654;28;20207;-76
2023/08/11 11:21:27;;;;;;;5.13;2.30;;;35.60;52.80;;;;;;5093858;28;20201;-77
2023/08/11 11:23:52;;;;;;;4.97;2.72;;;35.80;52.70;;;;;;5093847;28;20175;-76
2023/08/11 11:26:26;;;;;;;2.42;2.30;;;35.60;52.50;;;;;;5093665;28;20591;-76
2023/08/11 11:28:55;;;;;;;4.18;2.30;;;35.50;52.20;;;;;;5093955;28;20179;-76
2023/08/11 11:31:22;;;;;;;3.90;2.38;;;35.70;52.50;;;;;;5093698;28;20238;-79
2023/08/11 11:33:51;;;;;;;3.58;2.50;;;35.20;52.90;;;;;;5092807;28;20190;-76
2023/08/11 11:36:19;;;;;;;4.07;2.35;;;34.60;55.00;;;;;;5093831;28;20357;-77
2023/08/11 11:38:45;;;;;;;5.45;2.30;;;34.80;55.10;;;;;;5093481;28;20170;-76
2023/08/11 11:41:12;;;;;;;4.43;2.30;;;34.50;55.70;;;;;;5091604;28;20164;-76
2023/08/11 11:43:39;;;;;;;5.40;2.60;;;35.00;55.10;;;;;;5091868;28;20783;-76
2023/08/11 11:46:15;;;;;;;2.53;2.33;;;35.30;54.20;;;;;;5093733;28;20260;-76
2023/08/11 11:48:50;;;;;;;4.72;2.50;;;35.60;54.50;;;;;;5092985;28;20779;-76
2023/08/11 11:51:17;;;;;;;3.63;2.63;;;35.60;53.40;;;;;;5092991;28;20278;-76
2023/08/11 11:53:43;;;;;;;5.03;2.75;;;35.40;53.90;;;;;;5093157;28;20164;-75
2023/08/11 11:56:17;;;;;;;3.70;2.65;;;34.80;55.90;;;;;;5093379;28;20175;-75
2023/08/11 11:58:44;;;;;;;3.70;2.70;;;34.10;56.50;;;;;;5093275;28;20172;-75
2023/08/11 12:01:29;;;;;;;4.97;2.67;;;33.80;57.90;;;;;;5093212;28;20190;-77
2023/08/11 12:03:59;;;;;;;4.85;2.30;;;33.50;59.00;;;;;;5090897;28;20175;-75
2023/08/11 12:06:27;;;;;;;3.13;2.50;;;33.70;59.20;;;;;;5092926;28;20202;-76
2023/08/11 12:08:58;;;;;;;3.83;2.80;;;33.80;59.70;;;;;;5093270;28;20172;-75
2023/08/11 12:11:26;;;;;;;3.90;2.65;;;33.80;58.90;;;;;;5092781;28;20256;-75
2023/08/11 12:13:52;;;;;;;5.25;2.60;;;34.00;59.90;;;;;;5093161;28;20160;-75
2023/08/11 12:16:19;;;;;;;2.95;2.60;;;33.70;59.50;;;;;;5093275;28;20691;-75
2023/08/11 12:18:44;;;;;;;7.10;3.05;;;33.20;60.80;;;;;;5092721;28;20164;-75
2023/08/11 12:21:11;;;;;;;2.90;2.60;;;33.30;61.80;;;;;;5092781;28;20639;-75
2023/08/11 12:23:36;;;;;;;7.60;3.00;;;33.40;61.70;;;;;;5092778;28;20167;-75
2023/08/11 12:26:03;;;;;;;3.58;2.80;;;33.60;61.90;;;;;;5092809;28;20160;-75
2023/08/11 12:28:28;;;;;;;3.60;2.60;;;33.30;62.10;;;;;;5093031;28;20191;-75
2023/08/11 12:30:54;;;;;;;4.57;3.10;;;33.10;62.70;;;;;;5092159;28;20663;-74
2023/08/11 12:33:20;;;;;;;4.15;3.00;;;32.80;64.40;;;;;;5091540;28;20178;-74
2023/08/11 12:35:47;;;;;;;4.82;2.90;;;32.50;65.00;;;;;;5092025;28;20176;-74
2023/08/11 12:38:13;;;;;;;2.95;2.75;;;32.40;66.50;;;;;;5092562;28;20209;-75
2023/08/11 12:40:48;;;;;;;8.00;2.80;;;32.10;67.10;;;;;;5092750;28;20172;-76
2023/08/11 12:43:14;;;;;;;2.90;2.70;;;32.20;66.60;;;;;;5092764;28;20705;-74